createdAt,value
2018-01-03T00:00:11.283Z,4.03
2018-01-03T00:02:39.559Z,1.70
2018-01-03T00:05:07.848Z,4.20
2018-01-03T00:07:35.349Z,3.20
2018-01-03T00:10:02.861Z,3.73
2018-01-03T00:12:30.334Z,4.00
2018-01-03T00:14:58.581Z,2.50
2018-01-03T00:17:26.854Z,6.27
2018-01-03T00:19:55.104Z,2.33
2018-01-03T00:22:22.598Z,2.70
2018-01-03T00:24:50.131Z,1.40
2018-01-03T00:27:17.634Z,1.70
2018-01-03T00:29:45.141Z,4.13
2018-01-03T00:32:13.363Z,3.03
2018-01-03T00:34:40.860Z,2.73
2018-01-03T00:37:08.414Z,2.37
2018-01-03T00:39:35.902Z,2.97
2018-01-03T00:42:03.506Z,1.87
2018-01-03T00:44:30.972Z,2.10
2018-01-03T00:46:58.444Z,1.73
2018-01-03T00:49:25.958Z,2.60
2018-01-03T00:51:54.236Z,2.07
2018-01-03T00:54:21.754Z,2.50
2018-01-03T00:56:49.266Z,2.10
2018-01-03T00:59:16.754Z,2.23
2018-01-03T01:01:44.219Z,4.50
2018-01-03T01:04:11.704Z,6.20
2018-01-03T01:06:39.184Z,1.40
2018-01-03T01:09:06.636Z,3.63
2018-01-03T01:11:34.128Z,2.20
2018-01-03T01:14:01.604Z,3.87
2018-01-03T01:16:29.083Z,2.77
2018-01-03T01:18:56.555Z,3.57
2018-01-03T01:21:24.823Z,2.27
2018-01-03T01:23:52.292Z,2.03
2018-01-03T01:26:20.531Z,2.10
2018-01-03T01:28:48.763Z,2.20
2018-01-03T01:31:16.235Z,2.03
2018-01-03T01:33:43.724Z,1.73
2018-01-03T01:36:11.208Z,1.57
2018-01-03T01:38:40.970Z,1.63
2018-01-03T01:41:08.455Z,1.70
2018-01-03T01:43:35.928Z,1.47
2018-01-03T01:46:03.455Z,1.53
2018-01-03T01:48:30.938Z,1.67
2018-01-03T01:50:58.408Z,2.47
2018-01-03T01:53:25.888Z,1.40
2018-01-03T01:55:53.368Z,2.87
2018-01-03T01:58:20.857Z,2.23
2018-01-03T02:00:48.328Z,2.37
2018-01-03T02:03:15.821Z,1.20
2018-01-03T02:05:43.281Z,1.37
2018-01-03T02:08:10.761Z,1.37
2018-01-03T02:10:38.236Z,1.83
2018-01-03T02:13:05.710Z,1.60
2018-01-03T02:15:34.692Z,4.37
2018-01-03T02:18:02.168Z,1.93
2018-01-03T02:20:30.420Z,1.53
2018-01-03T02:22:58.669Z,1.50
2018-01-03T02:25:26.153Z,1.20
2018-01-03T02:27:53.754Z,1.40
2018-01-03T02:30:21.994Z,1.40
2018-01-03T02:32:49.472Z,1.30
2018-01-03T02:35:16.950Z,1.40
2018-01-03T02:37:45.224Z,1.47
2018-01-03T02:40:13.463Z,1.00
2018-01-03T02:42:40.990Z,3.50
2018-01-03T02:45:08.466Z,1.47
2018-01-03T02:47:35.950Z,1.30
2018-01-03T02:50:03.420Z,1.50
2018-01-03T02:52:31.646Z,1.30
2018-01-03T02:54:59.143Z,1.30
2018-01-03T02:57:28.136Z,1.30
2018-01-03T02:59:55.612Z,1.23
2018-01-03T03:02:23.840Z,1.07
2018-01-03T03:04:51.345Z,1.20
2018-01-03T03:07:19.584Z,1.17
2018-01-03T03:09:47.055Z,1.30
2018-01-03T03:12:14.532Z,1.12
2018-01-03T03:14:42.784Z,3.22
2018-01-03T03:17:10.268Z,0.90
2018-01-03T03:19:38.504Z,1.00
2018-01-03T03:22:06.018Z,0.90
2018-01-03T03:24:34.252Z,1.90
2018-01-03T03:27:01.735Z,1.10
2018-01-03T03:29:29.981Z,1.13
2018-01-03T03:31:57.457Z,0.97
2018-01-03T03:34:24.964Z,1.10
2018-01-03T03:36:52.463Z,1.10
2018-01-03T03:42:13.395Z,0.80
2018-01-03T03:44:40.874Z,0.80
2018-01-03T03:47:08.353Z,1.57
2018-01-03T03:49:35.840Z,0.97
2018-01-03T03:52:03.320Z,0.90
2018-01-03T03:54:30.818Z,1.10
2018-01-03T03:56:59.056Z,0.80
2018-01-03T03:59:26.528Z,0.90
2018-01-03T04:01:54.763Z,0.80
2018-01-03T04:04:22.252Z,1.10
2018-01-03T04:06:49.753Z,1.30
2018-01-03T04:09:17.245Z,1.83
2018-01-03T04:11:44.728Z,0.80
2018-01-03T04:14:12.196Z,0.80
2018-01-03T04:16:40.441Z,1.73
2018-01-03T04:19:07.920Z,0.90
2018-01-03T04:21:35.387Z,1.30
2018-01-03T04:24:03.651Z,0.90
2018-01-03T04:26:31.136Z,0.80
2018-01-03T04:28:58.627Z,0.80
2018-01-03T04:31:26.117Z,1.20
2018-01-03T04:33:53.595Z,0.80
2018-01-03T04:36:21.834Z,1.43
2018-01-03T04:38:49.295Z,0.90
2018-01-03T04:41:16.785Z,1.13
2018-01-03T04:43:45.020Z,0.97
2018-01-03T04:46:12.497Z,1.47
2018-01-03T04:48:39.987Z,0.90
2018-01-03T04:51:08.232Z,2.93
2018-01-03T04:53:35.704Z,1.53
2018-01-03T04:56:03.188Z,0.97
2018-01-03T04:58:30.672Z,0.83
2018-01-03T05:00:58.166Z,2.45
2018-01-03T05:03:25.622Z,0.80
2018-01-03T05:05:53.104Z,0.80
2018-01-03T05:08:21.354Z,1.03
2018-01-03T05:10:49.036Z,0.80
2018-01-03T05:13:17.280Z,0.80
2018-01-03T05:15:44.779Z,0.80
2018-01-03T05:18:13.022Z,0.87
2018-01-03T05:20:40.504Z,1.00
2018-01-03T05:23:08.749Z,0.80
2018-01-03T05:25:36.224Z,1.47
2018-01-03T05:28:05.216Z,0.87
2018-01-03T05:30:32.683Z,1.00
2018-01-03T05:33:00.922Z,0.83
2018-01-03T05:35:28.408Z,1.47
2018-01-03T05:37:55.871Z,1.35
2018-01-03T05:40:23.352Z,0.80
2018-01-03T05:42:51.579Z,0.70
2018-01-03T05:45:19.076Z,1.10
2018-01-03T05:47:50.279Z,1.13
2018-01-03T05:50:17.749Z,2.50
2018-01-03T05:52:45.219Z,0.80
2018-01-03T05:55:12.696Z,0.80
2018-01-03T05:57:40.952Z,0.70
2018-01-03T06:00:09.191Z,0.70
2018-01-03T06:02:36.665Z,0.73
2018-01-03T06:05:04.139Z,1.57
2018-01-03T06:07:31.707Z,0.97
2018-01-03T06:10:00.688Z,0.80
2018-01-03T06:12:28.171Z,1.00
2018-01-03T06:14:56.400Z,0.80
2018-01-03T06:17:23.876Z,1.00
2018-01-03T06:19:51.355Z,0.80
2018-01-03T06:22:19.587Z,1.67
2018-01-03T06:24:47.076Z,3.07
2018-01-03T06:27:14.536Z,1.00
2018-01-03T06:29:42.787Z,0.70
2018-01-03T06:32:10.252Z,1.97
2018-01-03T06:34:37.738Z,0.70
2018-01-03T06:37:06.000Z,0.80
2018-01-03T06:39:33.467Z,0.90
2018-01-03T06:42:01.724Z,0.80
2018-01-03T06:44:29.208Z,1.23
2018-01-03T06:46:57.475Z,1.10
2018-01-03T06:49:25.702Z,0.80
2018-01-03T06:51:53.187Z,0.70
2018-01-03T06:54:20.647Z,1.70
2018-01-03T06:56:48.120Z,0.80
2018-01-03T06:59:16.401Z,0.80
2018-01-03T07:01:44.661Z,1.65
2018-01-03T07:04:12.147Z,0.70
2018-01-03T07:06:40.424Z,5.73
2018-01-03T07:09:08.651Z,3.00
2018-01-03T07:11:36.127Z,2.63
2018-01-03T07:14:03.603Z,1.93
2018-01-03T07:16:31.856Z,0.90
2018-01-03T07:18:59.347Z,0.97
2018-01-03T07:21:27.605Z,0.80
2018-01-03T07:23:55.880Z,0.80
2018-01-03T07:26:23.345Z,2.03
2018-01-03T07:28:51.591Z,0.80
2018-01-03T07:31:19.056Z,2.90
2018-01-03T07:33:46.553Z,16.07
2018-01-03T07:36:14.789Z,2.90
2018-01-03T07:38:42.279Z,3.43
2018-01-03T07:41:10.515Z,3.43
2018-01-03T07:43:38.024Z,1.73
2018-01-03T07:46:05.490Z,0.73
2018-01-03T07:48:32.968Z,0.73
2018-01-03T07:51:00.455Z,3.63
2018-01-03T07:53:27.965Z,0.97
2018-01-03T07:56:01.111Z,1.33
2018-01-03T07:58:28.588Z,0.80
2018-01-03T08:00:56.817Z,1.17
2018-01-03T08:03:24.299Z,1.30
2018-01-03T08:05:51.776Z,0.80
2018-01-03T08:08:20.029Z,2.97
2018-01-03T08:10:47.497Z,2.03
2018-01-03T08:13:15.013Z,2.30
2018-01-03T08:15:43.240Z,3.57
2018-01-03T08:18:11.496Z,3.43
2018-01-03T08:20:39.014Z,3.27
2018-01-03T08:23:06.539Z,4.50
2018-01-03T08:25:51.328Z,1.37
2018-01-03T08:28:36.988Z,1.90
2018-01-03T08:31:05.246Z,5.60
2018-01-03T08:33:34.248Z,2.23
2018-01-03T08:36:03.503Z,2.23
2018-01-03T08:38:30.985Z,1.77
2018-01-03T08:40:58.457Z,4.40
2018-01-03T08:43:26.744Z,5.07
2018-01-03T08:45:55.030Z,2.30
2018-01-03T08:48:22.500Z,3.03
2018-01-03T08:50:49.982Z,1.20
2018-01-03T08:53:17.512Z,1.27
2018-01-03T08:55:45.007Z,5.03
2018-01-03T08:58:13.620Z,2.50
2018-01-03T09:00:41.111Z,2.27
2018-01-03T09:03:08.589Z,2.33
2018-01-03T09:05:36.079Z,2.10
2018-01-03T09:08:03.560Z,0.80
2018-01-03T09:10:31.045Z,1.00
2018-01-03T09:12:58.513Z,1.40
2018-01-03T09:15:26.026Z,1.10
2018-01-03T09:17:54.077Z,0.83
2018-01-03T09:20:22.813Z,1.80
2018-01-03T09:22:51.072Z,1.17
2018-01-03T09:25:19.319Z,1.30
2018-01-03T09:27:46.794Z,1.53
2018-01-03T09:30:14.284Z,0.90
2018-01-03T09:32:41.861Z,0.68
2018-01-03T09:35:09.376Z,1.00
2018-01-03T09:37:37.616Z,0.80
2018-01-03T09:40:05.092Z,1.70
2018-01-03T09:42:32.571Z,0.90
2018-01-03T09:45:00.072Z,1.17
2018-01-03T09:47:27.533Z,0.87
2018-01-03T09:49:55.056Z,1.90
2018-01-03T09:52:24.244Z,0.70
2018-01-03T09:54:51.726Z,0.70
2018-01-03T09:57:19.229Z,0.80
2018-01-03T09:59:46.721Z,1.43
2018-01-03T10:02:14.981Z,0.90
2018-01-03T10:04:42.489Z,0.90
2018-01-03T10:07:10.015Z,0.80
2018-01-03T10:09:38.293Z,0.80
2018-01-03T10:12:06.556Z,0.80
2018-01-03T10:14:34.028Z,1.33
2018-01-03T10:17:02.288Z,0.67
2018-01-03T10:19:29.760Z,1.00
2018-01-03T10:21:58.025Z,1.33
2018-01-03T10:24:25.494Z,0.60
2018-01-03T10:26:53.734Z,0.80
2018-01-03T10:29:21.210Z,1.37
2018-01-03T10:31:48.745Z,1.20
2018-01-03T10:34:16.233Z,0.60
2018-01-03T10:36:43.716Z,0.70
2018-01-03T10:39:11.194Z,1.17
2018-01-03T10:41:38.692Z,1.00
2018-01-03T10:44:07.704Z,1.57
2018-01-03T10:46:35.204Z,0.80
2018-01-03T10:49:02.680Z,2.43
2018-01-03T10:51:30.218Z,0.90
2018-01-03T10:53:58.421Z,1.30
2018-01-03T10:56:25.913Z,1.00
2018-01-03T10:58:54.158Z,2.10
2018-01-03T11:01:22.928Z,1.27
2018-01-03T11:03:50.440Z,4.83
2018-01-03T11:06:18.830Z,2.73
2018-01-03T11:08:46.471Z,2.10
2018-01-03T11:11:14.621Z,2.07
2018-01-03T11:13:42.128Z,1.87
2018-01-03T11:16:09.637Z,2.70
2018-01-03T11:18:37.112Z,2.27
2018-01-03T11:21:04.674Z,2.97
2018-01-03T11:23:32.153Z,3.40
2018-01-03T11:28:53.078Z,3.80
2018-01-03T11:31:21.338Z,3.27
2018-01-03T11:33:48.811Z,2.97
2018-01-03T11:36:17.070Z,6.73
2018-01-03T11:38:44.535Z,7.53
2018-01-03T11:41:13.342Z,4.93
2018-01-03T11:43:40.830Z,2.60
2018-01-03T11:46:08.311Z,4.20
2018-01-03T11:48:35.788Z,4.87
2018-01-03T11:51:03.288Z,1.50
2018-01-03T11:53:30.803Z,5.27
2018-01-03T11:55:58.276Z,5.13
2018-01-03T11:58:26.535Z,3.20
2018-01-03T12:00:55.510Z,3.93
2018-01-03T12:03:22.991Z,4.97
2018-01-03T12:05:50.475Z,4.33
2018-01-03T12:08:17.962Z,5.23
2018-01-03T12:10:45.435Z,5.83
2018-01-03T12:13:13.848Z,7.23
2018-01-03T12:15:42.429Z,4.97
2018-01-03T12:18:22.632Z,4.10
2018-01-03T12:20:50.191Z,4.93
2018-01-03T12:23:17.668Z,5.03
2018-01-03T12:25:45.146Z,4.47
2018-01-03T12:28:12.725Z,2.83
2018-01-03T12:30:40.970Z,7.33
2018-01-03T12:33:08.467Z,6.80
2018-01-03T12:35:36.729Z,4.73
2018-01-03T12:38:04.994Z,5.93
2018-01-03T12:40:32.461Z,5.07
2018-01-03T12:43:00.757Z,5.77
2018-01-03T12:45:28.993Z,6.50
2018-01-03T12:47:56.480Z,2.87
2018-01-03T12:50:25.753Z,4.20
2018-01-03T12:52:54.220Z,5.67
2018-01-03T12:55:22.716Z,5.63
2018-01-03T12:57:50.206Z,8.20
2018-01-03T13:00:18.455Z,7.07
2018-01-03T13:02:45.979Z,7.20
2018-01-03T13:05:13.471Z,4.70
2018-01-03T13:07:40.951Z,2.37
2018-01-03T13:10:09.207Z,7.27
2018-01-03T13:12:36.684Z,16.33
2018-01-03T13:15:04.945Z,4.33
2018-01-03T13:17:32.420Z,8.60
2018-01-03T13:20:00.708Z,4.30
2018-01-03T13:22:28.945Z,5.67
2018-01-03T13:24:56.437Z,7.57
2018-01-03T13:27:25.212Z,9.33
2018-01-03T13:29:53.487Z,5.93
2018-01-03T13:32:21.738Z,6.37
2018-01-03T13:34:49.984Z,11.20
2018-01-03T13:37:17.475Z,6.10
2018-01-03T13:39:46.478Z,9.13
2018-01-03T13:42:13.952Z,7.20
2018-01-03T13:44:42.193Z,9.10
2018-01-03T13:47:09.670Z,11.17
2018-01-03T13:49:37.158Z,5.00
2018-01-03T13:52:05.411Z,15.50
2018-01-03T13:54:33.656Z,6.67
2018-01-03T13:57:01.148Z,10.67
2018-01-03T13:59:28.629Z,4.73
2018-01-03T14:01:56.106Z,8.50
2018-01-03T14:04:23.620Z,5.60
2018-01-03T14:06:51.103Z,11.70
2018-01-03T14:09:18.603Z,8.70
2018-01-03T14:11:46.092Z,7.93
2018-01-03T14:14:13.569Z,12.00
2018-01-03T14:16:41.061Z,5.40
2018-01-03T14:19:08.530Z,4.10
2018-01-03T14:21:36.007Z,7.50
2018-01-03T14:24:03.508Z,8.93
2018-01-03T14:26:31.350Z,3.05
2018-01-03T14:28:59.608Z,8.43
2018-01-03T14:31:27.920Z,4.57
2018-01-03T14:33:56.335Z,6.50
2018-01-03T14:36:23.820Z,10.80
2018-01-03T14:38:51.293Z,5.57
2018-01-03T14:41:20.491Z,10.60
2018-01-03T14:43:47.952Z,7.13
2018-01-03T14:46:15.470Z,8.70
2018-01-03T14:48:42.944Z,9.10
2018-01-03T14:51:10.468Z,9.03
2018-01-03T14:53:37.951Z,2.80
2018-01-03T14:56:05.548Z,7.00
2018-01-03T14:58:33.781Z,8.40
2018-01-03T15:01:01.273Z,8.27
2018-01-03T15:03:28.786Z,4.97
2018-01-03T15:05:56.309Z,7.17
2018-01-03T15:08:24.551Z,5.80
2018-01-03T15:10:52.033Z,4.53
2018-01-03T15:13:20.263Z,7.80
2018-01-03T15:15:47.750Z,6.77
2018-01-03T15:21:19.816Z,11.30
2018-01-03T15:23:47.343Z,8.67
2018-01-03T15:26:14.884Z,9.57
2018-01-03T15:28:43.114Z,10.43
2018-01-03T15:31:10.717Z,13.77
2018-01-03T15:33:38.944Z,4.60
2018-01-03T15:36:06.466Z,5.90
2018-01-03T15:38:33.996Z,10.70
2018-01-03T15:41:02.245Z,9.98
2018-01-03T15:43:29.770Z,11.13
2018-01-03T15:45:57.248Z,5.90
2018-01-03T15:48:24.731Z,7.12
2018-01-03T15:50:52.199Z,7.10
2018-01-03T15:53:27.691Z,9.87
2018-01-03T15:55:55.159Z,5.93
2018-01-03T15:58:22.653Z,8.10
2018-01-03T16:00:50.166Z,12.00
2018-01-03T16:03:17.793Z,9.47
2018-01-03T16:05:46.028Z,10.80
2018-01-03T16:08:13.540Z,13.13
2018-01-03T16:13:35.219Z,9.77
2018-01-03T16:16:02.718Z,18.80
2018-01-03T16:18:30.967Z,11.57
2018-01-03T16:20:59.365Z,7.10
2018-01-03T16:23:27.675Z,8.27
2018-01-03T16:25:55.929Z,8.63
2018-01-03T16:28:24.354Z,10.57
2018-01-03T16:30:51.823Z,13.00
2018-01-03T16:33:19.303Z,8.73
2018-01-03T16:38:40.625Z,16.07
2018-01-03T16:41:08.102Z,8.60
2018-01-03T16:43:36.265Z,8.43
2018-01-03T16:46:03.742Z,12.87
2018-01-03T16:48:32.002Z,5.27
2018-01-03T16:50:59.475Z,17.83
2018-01-03T16:53:26.965Z,11.60
2018-01-03T16:55:54.853Z,7.53
2018-01-03T16:58:46.015Z,10.70
2018-01-03T17:01:13.487Z,12.53
2018-01-03T17:03:41.727Z,9.57
2018-01-03T17:06:22.527Z,6.50
2018-01-03T17:08:50.844Z,14.27
2018-01-03T17:11:18.357Z,7.53
2018-01-03T17:13:47.143Z,8.13
2018-01-03T17:16:14.709Z,7.83
2018-01-03T17:18:42.964Z,7.80
2018-01-03T17:21:10.443Z,18.20
2018-01-03T17:23:38.701Z,8.77
2018-01-03T17:26:06.320Z,10.80
2018-01-03T17:28:33.879Z,12.20
2018-01-03T17:31:01.438Z,10.20
2018-01-03T17:33:28.935Z,13.93
2018-01-03T17:35:56.466Z,9.30
2018-01-03T17:38:23.943Z,10.70
2018-01-03T17:40:51.570Z,20.03
2018-01-03T17:43:19.059Z,7.10
2018-01-03T17:45:46.528Z,13.83
2018-01-03T17:48:15.046Z,11.23
2018-01-03T17:50:42.568Z,10.60
2018-01-03T17:53:10.942Z,14.00
2018-01-03T17:55:38.408Z,15.40
2018-01-03T17:58:05.899Z,19.30
2018-01-03T18:00:33.400Z,10.77
2018-01-03T18:03:00.882Z,10.00
2018-01-03T18:05:28.419Z,9.70
2018-01-03T18:07:56.696Z,8.60
2018-01-03T18:10:24.259Z,12.00
2018-01-03T18:12:51.740Z,14.33
2018-01-03T18:15:19.275Z,7.77
2018-01-03T18:17:46.790Z,10.90
2018-01-03T18:20:14.349Z,15.70
2018-01-03T18:22:41.893Z,20.40
2018-01-03T18:25:10.204Z,6.97
2018-01-03T18:27:37.759Z,10.57
2018-01-03T18:30:05.297Z,10.80
2018-01-03T18:32:32.822Z,13.27
2018-01-03T18:35:00.362Z,10.40
2018-01-03T18:37:27.910Z,13.00
2018-01-03T18:39:55.447Z,7.83
2018-01-03T18:42:23.784Z,18.07
2018-01-03T18:44:51.330Z,11.83
2018-01-03T18:47:18.838Z,15.67
2018-01-03T18:49:47.210Z,8.77
2018-01-03T18:52:14.759Z,11.53
2018-01-03T18:54:43.059Z,10.50
2018-01-03T18:57:10.566Z,9.57
2018-01-03T18:59:38.081Z,13.20
2018-01-03T19:02:06.624Z,6.77
2018-01-03T19:04:35.528Z,6.53
2018-01-03T19:07:05.955Z,10.73
2018-01-03T19:09:34.257Z,9.17
2018-01-03T19:12:02.648Z,5.23
2018-01-03T19:14:30.212Z,16.90
2018-01-03T19:16:58.514Z,7.97
2018-01-03T19:19:26.030Z,9.07
2018-01-03T19:21:53.544Z,6.90
2018-01-03T19:24:21.087Z,12.55
2018-01-03T19:26:48.607Z,14.53
2018-01-03T19:29:16.894Z,9.90
2018-01-03T19:31:44.594Z,10.67
2018-01-03T19:34:13.615Z,11.40
2018-01-03T19:36:41.931Z,10.30
2018-01-03T19:39:09.474Z,11.43
2018-01-03T19:44:11.814Z,11.43
2018-01-03T19:46:39.352Z,11.13
2018-01-03T19:49:06.867Z,8.20
2018-01-03T19:51:34.428Z,5.67
2018-01-03T19:54:01.970Z,7.57
2018-01-03T19:56:30.271Z,8.33
2018-01-03T19:58:57.782Z,13.03
2018-01-03T20:01:25.316Z,7.97
2018-01-03T20:03:53.613Z,8.60
2018-01-03T20:06:22.117Z,9.17
2018-01-03T20:08:49.642Z,5.60
2018-01-03T20:11:17.175Z,5.50
2018-01-03T20:13:45.428Z,11.15
2018-01-03T20:16:13.734Z,9.50
2018-01-03T20:18:42.035Z,13.20
2018-01-03T20:21:09.564Z,8.77
2018-01-03T20:23:37.086Z,8.53
2018-01-03T20:26:05.386Z,14.93
2018-01-03T20:28:32.902Z,9.43
2018-01-03T20:31:00.447Z,15.13
2018-01-03T20:33:27.970Z,11.13
2018-01-03T20:35:56.378Z,11.20
2018-01-03T20:38:23.914Z,11.97
2018-01-03T20:40:52.209Z,11.40
2018-01-03T20:43:19.761Z,15.53
2018-01-03T20:45:47.295Z,17.30
2018-01-03T20:48:14.928Z,11.53
2018-01-03T20:50:44.170Z,11.37
2018-01-03T20:53:11.698Z,11.30
2018-01-03T20:55:40.007Z,11.10
2018-01-03T20:58:07.548Z,16.17
2018-01-03T21:00:35.077Z,8.03
2018-01-03T21:03:02.612Z,12.70
2018-01-03T21:05:30.155Z,11.50
2018-01-03T21:07:57.689Z,11.30
2018-01-03T21:10:25.226Z,10.90
2018-01-03T21:12:53.533Z,10.90
2018-01-03T21:15:21.205Z,16.40
2018-01-03T21:17:48.727Z,9.17
2018-01-03T21:20:17.027Z,12.10
2018-01-03T21:22:44.583Z,13.03
2018-01-03T21:25:12.101Z,11.20
2018-01-03T21:27:39.633Z,6.47
2018-01-03T21:30:07.161Z,12.33
2018-01-03T21:32:34.715Z,9.90
2018-01-03T21:35:02.235Z,18.73
2018-01-03T21:37:29.760Z,12.27
2018-01-03T21:39:57.328Z,15.33
2018-01-03T21:42:24.899Z,17.63
2018-01-03T21:44:52.421Z,9.33
2018-01-03T21:47:19.961Z,15.20
2018-01-03T21:49:48.282Z,14.37
2018-01-03T21:52:15.877Z,16.17
2018-01-03T21:54:43.394Z,6.30
2018-01-03T21:57:10.931Z,8.03
2018-01-03T21:59:41.295Z,8.70
2018-01-03T22:02:09.610Z,15.43
2018-01-03T22:04:38.871Z,16.13
2018-01-03T22:07:07.438Z,10.77
2018-01-03T22:09:34.971Z,10.40
2018-01-03T22:12:02.540Z,8.77
2018-01-03T22:14:30.106Z,5.47
2018-01-03T22:16:57.932Z,9.03
2018-01-03T22:19:26.213Z,12.77
2018-01-03T22:21:55.307Z,13.98
2018-01-03T22:24:23.603Z,14.20
2018-01-03T22:26:51.122Z,6.03
2018-01-03T22:29:18.691Z,7.93
2018-01-03T22:31:46.217Z,18.03
2018-01-03T22:34:13.777Z,11.80
2018-01-03T22:36:41.312Z,11.27
2018-01-03T22:39:09.643Z,8.37
2018-01-03T22:41:37.184Z,10.57
2018-01-03T22:44:04.716Z,16.50
2018-01-03T22:46:32.237Z,10.33
2018-01-03T22:49:00.521Z,8.70
2018-01-03T22:51:28.806Z,8.97
2018-01-03T22:53:56.343Z,10.67
2018-01-03T22:56:24.638Z,6.97
2018-01-03T22:58:52.172Z,5.80
2018-01-03T23:01:19.689Z,5.87
2018-01-03T23:03:47.221Z,4.70
2018-01-03T23:06:14.730Z,6.03
2018-01-03T23:08:42.279Z,5.23
2018-01-03T23:11:09.794Z,10.60
2018-01-03T23:13:37.327Z,6.77
2018-01-03T23:16:05.625Z,5.60
2018-01-03T23:18:33.158Z,11.12
2018-01-03T23:21:00.713Z,7.90
2018-01-03T23:23:28.736Z,5.90
2018-01-03T23:25:56.274Z,5.50
2018-01-03T23:28:23.847Z,4.72
2018-01-03T23:30:51.382Z,8.67
2018-01-03T23:33:19.699Z,7.67
2018-01-03T23:35:47.231Z,5.70
2018-01-03T23:38:14.761Z,5.43
2018-01-03T23:40:43.061Z,4.87
2018-01-03T23:43:11.356Z,7.53
2018-01-03T23:45:38.900Z,10.60
2018-01-03T23:48:06.422Z,7.40
2018-01-03T23:50:35.461Z,4.80
2018-01-03T23:53:02.942Z,7.60
2018-01-03T23:55:30.859Z,5.20
2018-01-03T23:57:59.142Z,2.80
